Nearby METAR Reports

 

YSRI - Richmond (aus-Af, Australia
Distance from station: SW 65km
Updated: 08/12/2019 04:00
Mostly cloudy
Mostly cloudy
 Wind from SE
Wind: SE 9 km/h
Temperature: 19°C
Dew Point: 16°C
Humidity: 83%
Barometer: 1017 hPa
Clouds: Mostly cloudy
Visibility: 10 km
Cloud details: Mostly cloudy 1067 m
2019/12/07 17:00 YSRI 071700Z AUTO 13005KT 9999 // BKN035 19/16 Q1017
YWLM - Williamtown Arp, Australia
Distance from station: NE 69km
Updated: 08/12/2019 04:00
Partly cloudy
Partly cloudy
 Wind from calm
Wind: Calm
Temperature: 17°C
Dew Point: 15°C
Humidity: 88%
Barometer: 1016 hPa
Clouds: Partly cloudy
Cloud details: Partly cloudy 823 m
Partly cloudy 1128 m
Partly cloudy 1280 m
2019/12/07 17:00 YWLM 071700Z AUTO 00000KT //// // SCT027 SCT037 SCT042 17/15 Q1016
 
YSSY - Sydney Intl Airp, Australia
Distance from station: SSW 77km
Updated: 08/12/2019 04:00
Mostly cloudy
Mostly cloudy
 Wind from E
Wind: E 13 km/h
Temperature: 20°C
Dew Point: 14°C
Humidity: 69%
Barometer: 1017 hPa
Clouds: Mostly cloudy
Visibility: 10 km
Cloud details: Few Clouds 1372 m
Mostly cloudy 1524 m
2019/12/07 17:00 YSSY 071700Z 10007KT 9999 FEW045 BKN050 20/14 Q1017